Terminal Aerodrome Forecast
Issued by NWS Paducah, KY

Home | Current Version | Previous Version | Text Only | Print | Product List | Glossary On
Versions: 1 2 3 4 5 6 7 8 9 10 11 12 13 14 15 16 17 18 19 20
000
FTUS43 KPAH 252339
TAFPAH
TAF
KPAH 252339Z 2600/2624 VRB03KT P6SM BKN150
     FM260900 00000KT 3SM BR BKN080
     FM261400 20004KT P6SM SCT020=

USA.gov is the U.S. government's official web portal to all federal, state and local government web resources and services.